createdAt,value
2022-10-05T00:00:07.884Z,5.63
2022-10-05T00:05:08.560Z,5.38
2022-10-05T00:10:08.292Z,6.30
2022-10-05T00:15:07.995Z,5.70
2022-10-05T00:20:17.683Z,0
2022-10-05T00:25:08.389Z,5.55
2022-10-05T00:30:08.104Z,5.07
2022-10-05T00:35:07.778Z,5.05
2022-10-05T00:40:08.504Z,5.28
2022-10-05T00:45:08.233Z,6.00
2022-10-05T00:50:07.920Z,5.75
2022-10-05T00:55:08.677Z,5.53
2022-10-05T01:00:08.393Z,5.68
2022-10-05T01:05:08.134Z,5.78
2022-10-05T01:10:07.851Z,5.78
2022-10-05T01:15:08.535Z,5.20
2022-10-05T01:20:08.209Z,5.13
2022-10-05T01:25:07.945Z,5.25
2022-10-05T01:30:07.646Z,5.63
2022-10-05T01:35:08.306Z,5.25
2022-10-05T01:40:18.041Z,0
2022-10-05T01:45:07.762Z,5.85
2022-10-05T01:50:08.425Z,4.80
2022-10-05T01:55:08.160Z,5.28
2022-10-05T02:00:07.916Z,5.57
2022-10-05T02:05:08.624Z,6.25
2022-10-05T02:10:08.301Z,5.20
2022-10-05T02:15:08.067Z,5.13
2022-10-05T02:20:07.794Z,4.97
2022-10-05T02:25:08.469Z,6.43
2022-10-05T02:30:10.421Z,5.00
2022-10-05T02:35:08.520Z,5.20
2022-10-05T02:40:18.249Z,0
2022-10-05T02:45:07.952Z,5.10
2022-10-05T02:50:07.650Z,5.57
2022-10-05T02:55:08.430Z,4.82
2022-10-05T03:00:08.094Z,5.30
2022-10-05T03:05:17.769Z,0
2022-10-05T03:10:08.445Z,4.65
2022-10-05T03:15:08.162Z,5.35
2022-10-05T03:20:07.931Z,5.43
2022-10-05T03:25:08.589Z,5.47
2022-10-05T03:30:08.264Z,5.53
2022-10-05T03:35:07.956Z,5.10
2022-10-05T03:40:17.640Z,0
2022-10-05T03:45:08.333Z,5.30
2022-10-05T03:50:08.050Z,5.50
2022-10-05T03:55:07.718Z,4.90
2022-10-05T04:00:08.392Z,6.05
2022-10-05T04:05:04.790Z,5.53
2022-10-05T04:10:02.603Z,5.75
2022-10-05T04:15:02.466Z,5.70
2022-10-05T04:20:02.240Z,5.03
2022-10-05T04:25:02.035Z,5.38
2022-10-05T04:30:01.774Z,6.07
2022-10-05T04:35:02.524Z,6.72
2022-10-05T04:40:02.268Z,6.63
2022-10-05T04:45:02.074Z,6.40
2022-10-05T04:50:01.872Z,6.03
2022-10-05T04:55:12.636Z,0
2022-10-05T05:00:02.395Z,7.25
2022-10-05T05:05:02.224Z,6.25
2022-10-05T05:10:02.085Z,6.20
2022-10-05T05:15:01.889Z,6.38
2022-10-05T05:20:12.610Z,0
2022-10-05T05:25:02.337Z,6.18
2022-10-05T05:30:02.108Z,6.88
2022-10-05T05:35:02.212Z,5.93
2022-10-05T05:40:02.182Z,6.72
2022-10-05T05:45:02.052Z,5.82
2022-10-05T05:50:12.074Z,0
2022-10-05T05:55:01.963Z,6.55
2022-10-05T06:00:01.774Z,5.88
2022-10-05T06:05:02.633Z,5.70
2022-10-05T06:10:02.556Z,5.93
2022-10-05T06:15:02.501Z,6.25
2022-10-05T06:20:05.327Z,5.60
2022-10-05T06:25:02.548Z,5.20
2022-10-05T06:30:02.257Z,5.15
2022-10-05T06:35:02.138Z,4.78
2022-10-05T06:40:01.932Z,5.35
2022-10-05T06:45:02.685Z,4.50
2022-10-05T06:50:02.405Z,4.45
2022-10-05T06:55:02.210Z,4.43
2022-10-05T07:00:01.974Z,3.97
2022-10-05T07:05:01.815Z,4.25
2022-10-05T07:10:02.640Z,4.03
2022-10-05T07:15:02.370Z,3.55
2022-10-05T07:20:02.227Z,4.45
2022-10-05T07:25:02.054Z,4.10
2022-10-05T07:30:01.930Z,3.90
2022-10-05T07:35:12.716Z,0
2022-10-05T07:40:02.614Z,4.30
2022-10-05T07:45:02.350Z,3.95
2022-10-05T07:50:02.097Z,4.45
2022-10-05T07:55:01.819Z,3.60
2022-10-05T08:00:02.568Z,3.72
2022-10-05T08:05:02.303Z,4.18
2022-10-05T08:10:02.141Z,4.10
2022-10-05T08:15:12.018Z,0
2022-10-05T08:20:01.919Z,3.42
2022-10-05T08:25:02.845Z,4.13
2022-10-05T08:30:02.768Z,3.92
2022-10-05T08:35:02.717Z,3.38
2022-10-05T08:40:03.342Z,3.80
2022-10-05T08:45:02.262Z,3.90
2022-10-05T08:50:02.102Z,3.67
2022-10-05T08:55:01.931Z,4.10
2022-10-05T09:00:02.636Z,4.03
2022-10-05T09:05:02.388Z,3.45
2022-10-05T09:10:02.256Z,3.30
2022-10-05T09:15:25.516Z,0
2022-10-05T09:20:02.284Z,3.22
2022-10-05T09:25:02.188Z,3.10
2022-10-05T09:30:01.953Z,3.08
2022-10-05T09:35:11.745Z,0
2022-10-05T09:40:02.542Z,3.88
2022-10-05T09:45:02.345Z,3.28
2022-10-05T09:50:02.203Z,3.70
2022-10-05T09:55:02.009Z,3.42
2022-10-05T10:00:02.078Z,3.20
2022-10-05T10:05:01.885Z,3.08
2022-10-05T10:10:02.600Z,3.10
2022-10-05T10:15:03.128Z,2.70
2022-10-05T10:20:02.079Z,2.83
2022-10-05T10:25:01.937Z,3.38
2022-10-05T10:30:02.749Z,3.80
2022-10-05T10:35:02.465Z,3.13
2022-10-05T10:40:02.202Z,3.40
2022-10-05T10:45:02.058Z,2.80
2022-10-05T10:50:01.929Z,2.90
2022-10-05T10:55:02.725Z,3.08
2022-10-05T11:00:02.645Z,3.30
2022-10-05T11:05:02.553Z,2.80
2022-10-05T11:10:02.402Z,2.92
2022-10-05T11:15:02.229Z,2.40
2022-10-05T11:20:04.470Z,3.00
2022-10-05T11:25:01.723Z,2.15
2022-10-05T11:30:02.567Z,2.15
2022-10-05T11:35:05.294Z,1.85
2022-10-05T11:40:02.088Z,2.10
2022-10-05T11:45:01.908Z,2.10
2022-10-05T11:50:02.643Z,2.30
2022-10-05T11:55:11.712Z,2.42
2022-10-05T12:00:02.140Z,2.10
2022-10-05T12:05:01.955Z,2.00
2022-10-05T12:10:01.784Z,2.17
2022-10-05T12:15:02.635Z,2.50
2022-10-05T12:20:02.495Z,2.65
2022-10-05T12:25:05.243Z,2.63
2022-10-05T12:30:01.999Z,1.92
2022-10-05T12:35:02.294Z,2.30
2022-10-05T12:40:02.267Z,2.22
2022-10-05T12:45:02.125Z,1.95
2022-10-05T12:50:02.087Z,2.08
2022-10-05T12:55:01.874Z,1.88
2022-10-05T13:00:02.641Z,2.00
2022-10-05T13:05:02.442Z,2.10
2022-10-05T13:10:08.690Z,1.60
2022-10-05T13:15:02.536Z,1.77
2022-10-05T13:20:02.325Z,1.90
2022-10-05T13:25:02.068Z,1.60
2022-10-05T13:30:02.014Z,1.80
2022-10-05T13:35:01.828Z,1.60
2022-10-05T13:40:02.932Z,1.70
2022-10-05T13:45:02.881Z,1.50
2022-10-05T13:50:12.842Z,0
2022-10-05T13:55:02.703Z,1.48
2022-10-05T14:00:02.604Z,1.50
2022-10-05T14:05:02.440Z,1.50
2022-10-05T14:10:02.395Z,1.65
2022-10-05T14:15:02.409Z,1.13
2022-10-05T14:20:02.324Z,1.30
2022-10-05T14:25:02.213Z,1.52
2022-10-05T14:30:01.999Z,1.10
2022-10-05T14:35:01.830Z,1.48
2022-10-05T14:40:03.378Z,1.40
2022-10-05T14:45:02.285Z,1.40
2022-10-05T14:50:02.060Z,1.10
2022-10-05T14:55:01.839Z,1.40
2022-10-05T15:00:12.567Z,0
2022-10-05T15:05:02.307Z,1.30
2022-10-05T15:10:02.063Z,1.52
2022-10-05T15:15:01.874Z,1.25
2022-10-05T15:20:02.611Z,1.40
2022-10-05T15:25:02.350Z,1.63
2022-10-05T15:30:02.073Z,1.40
2022-10-05T15:35:01.925Z,1.50
2022-10-05T15:40:01.733Z,2.22
2022-10-05T15:45:02.488Z,1.65
2022-10-05T15:50:02.433Z,1.45
2022-10-05T15:55:02.237Z,1.45
2022-10-05T16:00:02.077Z,1.42
2022-10-05T16:05:05.071Z,1.40
2022-10-05T16:10:02.135Z,1.50
2022-10-05T16:15:02.118Z,1.00
2022-10-05T16:20:02.057Z,1.10
2022-10-05T16:25:02.018Z,1.52
2022-10-05T16:30:01.998Z,1.60
2022-10-05T16:35:04.409Z,1.20
2022-10-05T16:40:02.379Z,1.10
2022-10-05T16:45:02.276Z,1.40
2022-10-05T16:50:02.088Z,1.30
2022-10-05T16:55:01.951Z,1.25
2022-10-05T17:00:02.599Z,1.10
2022-10-05T17:05:02.447Z,1.30
2022-10-05T17:10:02.218Z,1.35
2022-10-05T17:15:02.188Z,1.15
2022-10-05T17:20:02.021Z,1.30
2022-10-05T17:25:01.835Z,1.52
2022-10-05T17:30:02.699Z,1.30
2022-10-05T17:35:02.493Z,1.13
2022-10-05T17:40:02.398Z,1.40
2022-10-05T17:45:02.193Z,1.40
2022-10-05T17:50:02.021Z,1.75
2022-10-05T17:55:03.993Z,1.55
2022-10-05T18:00:02.253Z,1.50
2022-10-05T18:05:11.531Z,1.60
2022-10-05T18:10:02.314Z,1.30
2022-10-05T18:15:07.709Z,1.50
2022-10-05T18:20:12.475Z,0
2022-10-05T18:25:02.265Z,1.50
2022-10-05T18:30:02.113Z,1.27
2022-10-05T18:35:02.411Z,1.40
2022-10-05T18:40:02.226Z,1.25
2022-10-05T18:45:02.078Z,1.30
2022-10-05T18:50:01.889Z,1.20
2022-10-05T18:55:04.889Z,1.55
2022-10-05T19:00:02.741Z,1.10
2022-10-05T19:05:02.699Z,1.30
2022-10-05T19:10:02.625Z,1.50
2022-10-05T19:15:02.657Z,1.63
2022-10-05T19:20:02.588Z,1.80
2022-10-05T19:25:02.485Z,1.80
2022-10-05T19:30:02.465Z,1.90
2022-10-05T19:35:02.301Z,1.80
2022-10-05T19:40:04.522Z,2.00
2022-10-05T19:45:02.135Z,1.75
2022-10-05T19:50:01.920Z,1.73
2022-10-05T19:55:02.741Z,2.10
2022-10-05T20:00:02.574Z,2.03
2022-10-05T20:05:02.372Z,1.77
2022-10-05T20:10:02.195Z,1.58
2022-10-05T20:15:02.052Z,1.88
2022-10-05T20:20:01.856Z,1.67
2022-10-05T20:25:02.611Z,1.80
2022-10-05T20:30:02.473Z,1.80
2022-10-05T20:35:15.100Z,2.00
2022-10-05T20:40:07.828Z,2.15
2022-10-05T20:45:08.535Z,2.13
2022-10-05T20:50:08.214Z,1.92
2022-10-05T20:55:07.936Z,2.25
2022-10-05T21:00:08.642Z,2.25
2022-10-05T21:05:08.418Z,1.73
2022-10-05T21:10:08.186Z,1.88
2022-10-05T21:15:07.880Z,1.50
2022-10-05T21:20:08.602Z,1.10
2022-10-05T21:25:08.268Z,1.50
2022-10-05T21:30:07.972Z,1.30
2022-10-05T21:35:07.691Z,1.25
2022-10-05T21:40:08.412Z,1.25
2022-10-05T21:45:08.110Z,1.10
2022-10-05T21:50:07.804Z,0.63
2022-10-05T21:55:08.499Z,0.60
2022-10-05T22:00:08.263Z,0.50
2022-10-05T22:05:08.001Z,0.60
2022-10-05T22:10:07.746Z,0.45
2022-10-05T22:15:08.443Z,0.70
2022-10-05T22:20:08.121Z,0.70
2022-10-05T22:25:07.836Z,0.80
2022-10-05T22:30:08.584Z,0.60
2022-10-05T22:35:11.528Z,0.70
2022-10-05T22:40:08.635Z,0.95
2022-10-05T22:45:08.322Z,0.60
2022-10-05T22:50:08.032Z,0.70
2022-10-05T22:55:07.709Z,0.95
2022-10-05T23:01:01.983Z,0.90
2022-10-05T23:05:07.778Z,1.02
2022-10-05T23:10:08.287Z,0.70
2022-10-05T23:15:08.017Z,0.80
2022-10-05T23:20:07.762Z,0.90
2022-10-05T23:25:08.468Z,0.93
2022-10-05T23:30:08.185Z,1.00
2022-10-05T23:35:07.873Z,0.70
2022-10-05T23:40:08.560Z,0.77
2022-10-05T23:45:08.280Z,1.00
2022-10-05T23:50:08.015Z,1.00
2022-10-05T23:55:07.694Z,0.70
